Latest Weather Observations for Cunderdin Airport

IDW60801

Issued at 7:13 pm WST Thursday 22 August 2019 (issued every 10 minutes, with the page automatically refreshed every 10 minutes)

About weather observations | Map of weather stations | Latest weather observations for WA | Other Formats
Station Details ID: 010286 Name: CUNDERDIN AIRFIELD Lat: -31.62 Lon: 117.22 Height: 216.7 m
Data from the previous 72 hours. | See also: Recent months at Cunderdin Airport
Date/Time
WST
Temp
°C
App
Temp
°C
Dew
Point
°C
Rel
Hum
%
Delta-T
°C
Wind Press
QNH
hPa
Press
MSL
hPa
Rain since
9am
mm
Dir  Spd
km/h
Gust
km/h
Spd
kts
Gust
kts
22/07:00pm 19.1 13.6 2.0 32 7.9 NNW 20 28 11 15 1015.9 1016.0 0.0
22/06:30pm 19.8 12.7 1.3 29 8.5 NW 28 39 15 21 1016.1 1016.2 0.0
22/06:21pm 19.9 11.5 1.4 29 8.5 NW 35 54 19 29 1016.2 1016.3 0.0
22/06:13pm 20.7 12.4 0.0 25 9.3 NW 33 50 18 27 1016.3 1016.4 0.0
22/06:00pm 20.4 14.6 -0.3 25 9.2 NW 20 30 11 16 1015.9 1016.0 0.0
22/05:30pm 20.8 15.6 0.1 25 9.3 NW 17 26 9 14 1015.5 1015.6 0.0
22/05:00pm 21.2 16.1 1.0 26 9.3 NW 17 22 9 12 1015.3 1015.4 0.0
22/04:30pm 23.4 17.6 -0.1 21 10.8 NW 20 28 11 15 1015.2 1015.3 0.0
22/04:00pm 22.8 16.6 -0.6 21 10.6 NW 22 30 12 16 1015.5 1015.6 0.0
22/03:30pm 23.5 16.3 -2.2 18 11.3 NW 26 37 14 20 1015.5 1015.6 0.0
22/03:00pm 24.9 16.0 -5.4 13 12.7 NNW 33 44 18 24 1015.4 1015.5 0.0
22/02:30pm 25.3 16.7 -4.1 14 12.7 NNW 32 43 17 23 1015.5 1015.6 0.0
22/02:00pm 24.6 15.5 -3.7 15 12.2 NNW 35 44 19 24 1015.8 1015.9 0.0
22/01:30pm 24.3 15.9 -0.8 19 11.4 NNW 33 44 18 24 1016.1 1016.2 0.0
22/01:00pm 23.7 15.6 -0.6 20 11.0 NNW 32 43 17 23 1016.7 1016.8 0.0
22/12:30pm 23.4 14.7 -0.8 20 10.9 NNW 35 48 19 26 1017.3 1017.4 0.0
22/12:00pm 22.7 13.6 -0.7 21 10.5 NNW 37 50 20 27 1017.6 1017.7 0.0
22/11:30am 22.1 13.8 -0.6 22 10.2 N 33 48 18 26 1018.0 1018.1 0.0
22/11:00am 20.9 12.3 -2.2 21 9.9 N 33 44 18 24 1018.6 1018.8 0.0
22/10:30am 20.1 11.3 -1.1 24 9.3 N 35 48 19 26 1018.8 1019.0 0.0
22/10:00am 18.6 10.8 -0.7 27 8.4 N 30 46 16 25 1019.6 1019.7 0.0
22/09:30am 17.3 8.9 -0.9 29 7.8 N 33 48 18 26 1019.7 1019.8 0.0
22/09:00am 15.3 8.2 -0.9 33 6.8 N 26 33 14 18 1020.2 1020.3 0.0
22/08:30am 14.1 7.3 -1.5 34 6.4 N 24 33 13 18 1020.4 1020.5 0.0
22/08:00am 13.1 5.9 -2.0 35 6.0 N 26 35 14 19 1020.3 1020.4 0.0
22/07:30am 11.0 3.8 -1.7 41 5.0 NNE 26 33 14 18 1020.2 1020.3 0.0
22/07:00am 9.7 2.6 -1.6 45 4.4 NNE 26 33 14 18 1020.2 1020.3 0.0
22/06:30am 9.3 3.5 -1.4 47 4.2 NNE 19 26 10 14 1020.0 1020.1 0.0
22/06:00am 7.8 2.8 -0.9 54 3.4 NNE 15 19 8 10 1019.9 1020.0 0.0
22/05:30am 7.3 2.3 -0.9 56 3.2 NNE 15 19 8 10 1019.9 1020.0 0.0
22/05:00am 6.4 3.0 -0.8 60 2.8 NE 7 11 4 6 1019.9 1020.0 0.0
22/04:30am 5.5 2.1 -0.3 66 2.2 E 7 9 4 5 1020.0 1020.1 0.0
22/04:00am 5.4 2.1 0.0 68 2.1 ESE 7 9 4 5 1020.1 1020.2 0.0
22/03:30am 6.1 2.8 -0.2 64 2.4 E 7 9 4 5 1020.3 1020.4 0.0
22/03:00am 5.7 2.4 0.1 67 2.2 ENE 7 9 4 5 1020.6 1020.7 0.0
22/02:30am 5.8 2.1 0.0 66 2.3 ENE 9 11 5 6 1020.8 1020.9 0.0
22/02:00am 7.1 3.3 -0.4 59 2.9 ENE 9 15 5 8 1021.2 1021.3 0.0
22/01:30am 7.0 3.7 0.0 61 2.8 E 7 9 4 5 1021.5 1021.6 0.0
22/01:00am 7.9 4.3 0.9 61 2.8 E 9 11 5 6 1021.7 1021.8 0.0
22/12:30am 6.7 2.9 1.6 70 2.1 E 11 15 6 8 1022.0 1022.1 0.0
22/12:00am 6.3 2.2 2.4 76 1.6 E 13 15 7 8 1022.1 1022.2 0.0
 
Date/Time
WST
Temp
°C
App
Temp
°C
Dew
Point
°C
Rel
Hum
%
Delta-T
°C
Wind Press
QNH
hPa
Press
MSL
hPa
Rain since
9am
mm
Dir  Spd
km/h
Gust
km/h
Spd
kts
Gust
kts
21/11:30pm 5.5 2.2 2.3 80 1.3 E 9 11 5 6 1022.5 1022.7 0.0
21/11:00pm 4.2 1.3 2.4 88 0.7 E 7 9 4 5 1022.8 1023.0 0.0
21/10:30pm 5.5 3.0 3.5 87 0.8 E 6 9 3 5 1022.9 1023.1 0.0
21/10:00pm 6.7 4.1 4.2 84 1.1 E 7 9 4 5 1023.3 1023.5 0.0
21/09:30pm 5.8 3.5 4.6 92 0.5 ENE 6 7 3 4 1023.6 1023.8 0.0
21/09:00pm 5.6 2.6 4.1 90 0.6 E 9 11 5 6 1023.7 1023.9 0.0
21/08:30pm 6.3 3.7 4.1 86 1.0 ENE 7 9 4 5 1023.7 1023.9 0.0
21/08:00pm 7.0 3.7 4.8 86 1.0 E 11 13 6 7 1023.7 1023.9 0.0
21/07:30pm 7.6 5.2 4.4 80 1.4 NE 6 9 3 5 1023.7 1023.9 0.0
21/07:00pm 8.8 7.6 4.6 75 1.9 CALM 0 0 0 0 1023.7 1023.9 0.0
21/06:30pm 12.0 11.0 5.6 65 3.0 CALM 0 6 0 3 1023.5 1023.7 0.0
21/06:00pm 14.6 13.6 5.4 54 4.4 CALM 0 0 0 0 1023.4 1023.6 0.0
21/05:30pm 17.1 14.8 4.8 44 5.9 NNE 6 7 3 4 1023.5 1023.7 0.0
21/05:00pm 19.1 16.1 4.1 37 7.2 NNE 9 13 5 7 1023.4 1023.6 0.0
21/04:30pm 20.4 15.5 2.3 30 8.5 NNE 17 22 9 12 1023.5 1023.7 0.0
21/04:00pm 21.2 16.3 2.0 28 9.0 NNE 17 26 9 14 1023.6 1023.8 0.0
21/03:30pm 21.4 15.9 0.6 25 9.5 N 19 28 10 15 1023.8 1024.0 0.0
21/03:00pm 21.4 15.2 -0.6 23 9.8 NNE 22 30 12 16 1024.2 1024.3 0.0
21/02:30pm 21.7 15.9 2.4 28 9.2 NNE 22 32 12 17 1024.7 1024.8 0.0
21/02:00pm 21.6 16.2 2.3 28 9.1 N 20 32 11 17 1025.1 1025.2 0.0
21/01:30pm 21.1 15.6 1.9 28 9.0 NNE 20 28 11 15 1025.6 1025.7 0.0
21/01:00pm 20.5 14.1 0.9 27 8.9 NNE 24 35 13 19 1026.2 1026.3 0.0
21/12:30pm 20.6 15.0 3.3 32 8.3 N 22 32 12 17 1026.6 1026.8 0.0
21/12:00pm 19.6 12.2 2.0 31 8.1 N 30 39 16 21 1027.3 1027.5 0.0
21/11:30am 19.4 12.9 2.7 33 7.8 N 26 39 14 21 1027.8 1028.0 0.0
21/11:00am 18.1 11.5 2.0 34 7.3 N 26 37 14 20 1028.4 1028.6 0.0
21/10:30am 18.3 13.3 4.8 41 6.6 NNE 20 30 11 16 1028.8 1029.0 0.0
21/10:00am 16.4 11.4 4.8 46 5.5 NNE 20 26 11 14 1029.1 1029.2 0.0
21/09:30am 14.3 9.5 4.6 52 4.5 NE 19 24 10 13 1029.2 1029.3 0.0
21/09:00am 12.1 8.9 5.3 63 3.2 ENE 11 15 6 8 1029.4 1029.5 0.0
21/08:30am 9.7 5.5 3.7 66 2.7 ENE 15 17 8 9 1029.4 1029.5 0.0
21/08:00am 7.5 4.0 3.7 77 1.6 E 11 13 6 7 1029.4 1029.5 0.0
21/07:30am 5.3 1.3 2.7 83 1.1 E 13 15 7 8 1029.2 1029.3 0.0
21/07:00am 3.3 -1.3 1.7 89 0.6 E 15 15 8 8 1029.1 1029.2 0.0
21/06:30am 1.8 -2.1 1.1 95 0.3 ENE 11 13 6 7 1029.2 1029.3 0.0
21/06:00am 1.8 -1.7 1.2 96 0.2 ENE 9 11 5 6 1029.1 1029.2 0.0
21/05:30am 1.1 -2.6 0.2 94 0.3 E 9 11 5 6 1029.0 1029.1 0.0
21/05:00am 2.3 0.2 1.6 95 0.3 ENE 2 6 1 3 1029.1 1029.2 0.0
21/04:30am 3.1 0.3 1.9 92 0.5 E 6 7 3 4 1029.0 1029.1 0.0
21/04:00am 4.1 1.2 2.6 90 0.6 E 7 7 4 4 1029.1 1029.2 0.0
21/03:30am 3.9 2.1 3.2 95 0.3 E 2 7 1 4 1029.0 1029.1 0.0
21/03:00am 2.9 0.5 1.9 93 0.4 ESE 4 7 2 4 1029.1 1029.2 0.0
21/02:30am 2.9 0.0 1.7 92 0.5 ESE 6 7 3 4 1029.4 1029.5 0.0
21/02:00am 3.9 2.4 2.9 93 0.4 CALM 0 4 0 2 1029.5 1029.6 0.0
21/01:30am 3.7 1.0 2.4 91 0.5 ENE 6 7 3 4 1029.8 1029.9 0.0
21/01:00am 4.4 1.5 2.8 89 0.7 E 7 9 4 5 1030.1 1030.2 0.0
21/12:30am 4.2 1.6 3.3 94 0.4 ENE 6 7 3 4 1030.1 1030.2 0.0
21/12:00am 4.6 1.8 3.4 92 0.5 ENE 7 9 4 5 1030.1 1030.2 0.0
 
Date/Time
WST
Temp
°C
App
Temp
°C
Dew
Point
°C
Rel
Hum
%
Delta-T
°C
Wind Press
QNH
hPa
Press
MSL
hPa
Rain since
9am
mm
Dir  Spd
km/h
Gust
km/h
Spd
kts
Gust
kts
20/11:30pm 4.3 1.5 3.0 91 0.5 E 7 9 4 5 1030.5 1030.7 0.0
20/11:00pm 4.5 1.7 3.3 92 0.5 ENE 7 9 4 5 1030.7 1030.9 0.0
20/10:30pm 5.3 2.6 3.8 90 0.6 ENE 7 9 4 5 1030.9 1031.1 0.0
20/10:00pm 5.9 2.9 4.1 88 0.8 ENE 9 9 5 5 1031.3 1031.5 0.0
20/09:30pm 7.6 5.0 4.2 79 1.5 NE 7 11 4 6 1031.5 1031.7 0.0
20/09:00pm 6.4 3.4 3.9 84 1.1 NE 9 11 5 6 1031.6 1031.8 0.0
20/08:30pm 6.0 2.9 3.5 84 1.1 NE 9 9 5 5 1031.7 1031.9 0.0
20/08:00pm 8.1 5.6 5.0 81 1.4 ENE 7 7 4 4 1031.5 1031.7 0.0
20/07:30pm 8.8 6.0 5.2 78 1.6 E 9 9 5 5 1031.5 1031.7 0.0
20/07:00pm 10.5 8.2 5.9 73 2.1 E 7 11 4 6 1031.4 1031.6 0.0
20/06:30pm 11.4 8.6 5.3 66 2.8 E 9 11 5 6 1031.3 1031.5 0.0
20/06:00pm 14.8 11.8 4.2 49 4.9 E 9 11 5 6 1031.3 1031.5 0.0
20/05:30pm 17.5 14.8 3.8 40 6.5 E 7 11 4 6 1031.2 1031.4 0.0
20/05:00pm 19.0 16.2 3.2 35 7.4 E 7 11 4 6 1031.3 1031.5 0.0
20/04:30pm 19.6 16.4 3.3 34 7.8 ENE 9 13 5 7 1031.4 1031.6 0.0
20/04:00pm 20.2 17.0 3.0 32 8.1 ENE 9 15 5 8 1031.5 1031.7 0.0
20/03:30pm 20.3 16.7 3.1 32 8.2 NE 11 19 6 10 1031.7 1031.9 0.0
20/03:00pm 20.8 18.1 3.5 32 8.3 NE 7 15 4 8 1031.8 1032.0 0.0
20/02:30pm 20.4 17.1 2.3 30 8.5 NE 9 19 5 10 1031.9 1032.1 0.0
20/02:00pm 20.3 17.1 5.1 37 7.5 NE 11 17 6 9 1032.2 1032.4 0.0
20/01:30pm 20.1 16.6 5.4 38 7.3 ENE 13 19 7 10 1032.7 1032.9 0.0
20/01:00pm 19.5 15.8 4.4 37 7.3 NNE 13 20 7 11 1033.1 1033.3 0.0
20/12:30pm 19.1 15.5 4.8 39 7.0 NNE 13 22 7 12 1033.6 1033.8 0.0
20/12:00pm 18.7 15.7 6.2 44 6.2 NE 11 17 6 9 1034.2 1034.4 0.0
20/11:30am 17.7 14.6 7.2 50 5.3 NE 13 19 7 10 1034.7 1034.9 0.0
20/11:00am 16.7 13.3 7.6 55 4.6 NE 15 20 8 11 1035.2 1035.4 0.0
20/10:30am 15.8 12.1 6.3 53 4.7 NE 15 20 8 11 1035.6 1035.8 0.0
20/10:00am 14.5 11.1 5.8 56 4.1 NE 13 19 7 10 1036.0 1036.2 0.0
20/09:30am 12.1 9.7 7.0 71 2.5 ENE 9 13 5 7 1036.1 1036.3 0.0
20/09:00am 10.2 7.8 6.9 80 1.6 E 9 11 5 6 1036.2 1036.4 -
20/08:30am 8.4 5.7 5.7 83 1.2 E 9 13 5 7 1036.2 1036.4 -
20/08:00am 6.3 3.5 5.1 92 0.5 ESE 9 11 5 6 1036.1 1036.3 -
20/07:30am 2.5 0.1 2.2 98 0.1 ESE 4 7 2 4 1035.8 1036.0 -
20/07:00am 1.3 -1.9 0.9 97 0.1 ENE 7 7 4 4 1035.4 1035.6 -
20/06:30am 1.6 -1.9 1.3 98 0.1 ENE 9 9 5 5 1035.3 1035.5 -
20/06:00am 1.3 -2.2 1.0 98 0.1 ENE 9 9 5 5 1035.1 1035.3 -
20/05:30am 1.1 -1.9 0.7 97 0.2 ENE 6 7 3 4 1035.1 1035.3 -
20/05:00am 1.1 -2.1 0.7 97 0.1 ENE 7 9 4 5 1035.0 1035.2 -
20/04:30am 1.6 -1.5 1.2 97 0.2 ENE 7 9 4 5 1034.9 1035.1 -
20/04:00am 1.0 -2.6 0.4 96 0.2 NE 9 11 5 6 1034.9 1035.1 -
20/03:30am 1.6 -1.5 1.2 97 0.2 NE 7 9 4 5 1035.1 1035.3 -
20/03:00am 1.3 -1.9 0.7 96 0.2 NE 7 9 4 5 1035.2 1035.4 0.0
20/02:30am 1.8 -1.3 1.2 96 0.2 NE 7 7 4 4 1035.3 1035.5 -
20/02:00am 2.2 -0.9 1.6 96 0.2 NE 7 9 4 5 1035.4 1035.6 -
20/01:30am 2.3 -1.1 1.9 97 0.2 NE 9 9 5 5 1035.4 1035.6 -
20/01:00am 1.6 -1.5 1.2 97 0.2 ENE 7 7 4 4 1035.6 1035.8 -
20/12:30am 2.0 -1.1 1.4 96 0.2 ENE 7 7 4 4 1035.5 1035.7 -
20/12:00am 2.5 -0.3 1.9 96 0.2 ENE 6 7 3 4 1035.5 1035.7 -
 
Date/Time
WST
Temp
°C
App
Temp
°C
Dew
Point
°C
Rel
Hum
%
Delta-T
°C
Wind Press
QNH
hPa
Press
MSL
hPa
Rain since
9am
mm
Dir  Spd
km/h
Gust
km/h
Spd
kts
Gust
kts
19/11:30pm 3.0 0.2 2.3 95 0.3 ENE 6 7 3 4 1035.7 1035.9 -
19/11:00pm 3.4 0.1 2.4 93 0.4 NE 9 9 5 5 1035.8 1036.0 -
19/10:30pm 4.0 0.8 3.3 95 0.3 NE 9 9 5 5 1035.9 1036.1 -
19/10:00pm 4.1 2.3 3.2 94 0.4 NE 2 6 1 3 1036.2 1036.4 -
19/09:30pm 4.1 1.3 3.2 94 0.4 NE 7 7 4 4 1036.0 1036.2 -
19/09:00pm 4.2 1.4 3.2 93 0.4 NE 7 7 4 4 1035.9 1036.1 0.0
19/08:30pm 5.0 3.6 3.8 92 0.5 CALM 0 0 0 0 1035.9 1036.1 -
19/08:00pm 6.3 5.1 4.8 90 0.7 CALM 0 0 0 0 1035.5 1035.7 -
19/07:30pm 7.2 6.1 5.2 87 0.9 CALM 0 0 0 0 1035.3 1035.5 -

Other formats

Comma delimited format used in spreadsheet applications
http://www.bom.gov.au/fwo/IDW60801/IDW60801.95625.axf

JavaScript Object Notation format (JSON) in row-major order
http://www.bom.gov.au/fwo/IDW60801/IDW60801.95625.json

Data quality

Most of these data are generated automatically and are frequently updated. Quality checks on data are not normally performed. It is possible for incorrect values to appear. Refer to information at About Latest Weather Observations and please check the disclaimer before using these data.